sensor_id;sensor_type;location;lat;lon;timestamp;pressure;altitude;pressure_sealevel;temperature;humidity
19600;BME280;9947;57.722;12.012;2023-10-13T02:59:34;100314.50;;;8.52;100.00
19600;BME280;9947;57.722;12.012;2023-10-13T03:02:06;100317.50;;;8.60;100.00
19600;BME280;9947;57.722;12.012;2023-10-13T03:04:44;100311.69;;;8.54;100.00
19600;BME280;9947;57.722;12.012;2023-10-13T03:07:25;100303.38;;;8.57;100.00
19600;BME280;9947;57.722;12.012;2023-10-13T03:09:54;100293.41;;;8.70;100.00
19600;BME280;9947;57.722;12.012;2023-10-13T03:12:26;100292.56;;;8.81;100.00
19600;BME280;9947;57.722;12.012;2023-10-13T03:15:04;100279.72;;;8.84;100.00
19600;BME280;9947;57.722;12.012;2023-10-13T03:17:57;100281.72;;;8.93;100.00
19600;BME280;9947;57.722;12.012;2023-10-13T03:20:39;100276.81;;;8.99;100.00
19600;BME280;9947;57.722;12.012;2023-10-13T03:23:09;100277.06;;;8.95;100.00
19600;BME280;9947;57.722;12.012;2023-10-13T03:25:52;100277.19;;;8.94;100.00
19600;BME280;9947;57.722;12.012;2023-10-13T03:28:36;100274.38;;;8.95;100.00
19600;BME280;9947;57.722;12.012;2023-10-13T03:31:10;100266.91;;;8.99;100.00
19600;BME280;9947;57.722;12.012;2023-10-13T03:33:44;100268.00;;;8.96;100.00
19600;BME280;9947;57.722;12.012;2023-10-13T03:36:24;100266.28;;;8.95;100.00
19600;BME280;9947;57.722;12.012;2023-10-13T03:39:22;100256.84;;;9.01;100.00
19600;BME280;9947;57.722;12.012;2023-10-13T03:41:57;100243.00;;;9.06;100.00
19600;BME280;9947;57.722;12.012;2023-10-13T03:44:25;100244.97;;;9.04;100.00
19600;BME280;9947;57.722;12.012;2023-10-13T03:47:01;100239.34;;;9.07;100.00
19600;BME280;9947;57.722;12.012;2023-10-13T03:49:44;100240.56;;;9.03;100.00
19600;BME280;9947;57.722;12.012;2023-10-13T03:52:17;100248.03;;;8.99;100.00
19600;BME280;9947;57.722;12.012;2023-10-13T03:54:48;100227.44;;;8.98;100.00
19600;BME280;9947;57.722;12.012;2023-10-13T03:57:18;100225.00;;;8.95;100.00
19600;BME280;9947;57.722;12.012;2023-10-13T03:59:51;100229.53;;;8.94;100.00
19600;BME280;9947;57.722;12.012;2023-10-13T04:02:28;100223.16;;;8.95;100.00
19600;BME280;9947;57.722;12.012;2023-10-13T04:05:10;100215.44;;;8.91;100.00
19600;BME280;9947;57.722;12.012;2023-10-13T04:08:02;100221.44;;;8.94;100.00
19600;BME280;9947;57.722;12.012;2023-10-13T04:10:47;100212.25;;;9.08;100.00
19600;BME280;9947;57.722;12.012;2023-10-13T04:13:35;100209.56;;;9.08;100.00
19600;BME280;9947;57.722;12.012;2023-10-13T04:16:20;100208.81;;;9.06;100.00
19600;BME280;9947;57.722;12.012;2023-10-13T04:19:20;100202.31;;;9.09;100.00
19600;BME280;9947;57.722;12.012;2023-10-13T04:21:52;100193.78;;;9.15;100.00
19600;BME280;9947;57.722;12.012;2023-10-13T04:24:32;100185.56;;;9.16;100.00
19600;BME280;9947;57.722;12.012;2023-10-13T04:27:27;100192.31;;;9.11;100.00
19600;BME280;9947;57.722;12.012;2023-10-13T04:30:20;100185.91;;;9.23;100.00
19600;BME280;9947;57.722;12.012;2023-10-13T04:33:01;100192.03;;;9.25;100.00
19600;BME280;9947;57.722;12.012;2023-10-13T04:36:06;100189.59;;;9.33;100.00
19600;BME280;9947;57.722;12.012;2023-10-13T04:38:43;100184.06;;;9.35;100.00
19600;BME280;9947;57.722;12.012;2023-10-13T04:41:28;100182.88;;;9.39;100.00
19600;BME280;9947;57.722;12.012;2023-10-13T04:44:04;100167.41;;;9.41;100.00
19600;BME280;9947;57.722;12.012;2023-10-13T04:46:58;100157.34;;;9.43;100.00
19600;BME280;9947;57.722;12.012;2023-10-13T04:49:41;100166.56;;;9.40;100.00
19600;BME280;9947;57.722;12.012;2023-10-13T04:52:40;100157.47;;;9.41;100.00
19600;BME280;9947;57.722;12.012;2023-10-13T04:55:27;100155.38;;;9.45;100.00
19600;BME280;9947;57.722;12.012;2023-10-13T04:58:14;100142.03;;;9.43;100.00
19600;BME280;9947;57.722;12.012;2023-10-13T05:01:13;100142.03;;;9.43;100.00
19600;BME280;9947;57.722;12.012;2023-10-13T05:04:26;100132.47;;;9.39;100.00
19600;BME280;9947;57.722;12.012;2023-10-13T05:07:28;100117.75;;;9.43;100.00
19600;BME280;9947;57.722;12.012;2023-10-13T05:10:16;100113.06;;;9.45;100.00
19600;BME280;9947;57.722;12.012;2023-10-13T05:13:03;100104.97;;;9.45;100.00
19600;BME280;9947;57.722;12.012;2023-10-13T05:15:50;100102.03;;;9.48;100.00
19600;BME280;9947;57.722;12.012;2023-10-13T05:18:41;100101.78;;;9.51;100.00
19600;BME280;9947;57.722;12.012;2023-10-13T05:21:25;100084.59;;;9.52;100.00
19600;BME280;9947;57.722;12.012;2023-10-13T05:24:16;100080.91;;;9.53;100.00
19600;BME280;9947;57.722;12.012;2023-10-13T05:27:01;100074.28;;;9.57;100.00
19600;BME280;9947;57.722;12.012;2023-10-13T05:30:00;100075.84;;;9.60;100.00
19600;BME280;9947;57.722;12.012;2023-10-13T05:32:49;100067.88;;;9.58;100.00
19600;BME280;9947;57.722;12.012;2023-10-13T05:35:35;100059.66;;;9.60;100.00
19600;BME280;9947;57.722;12.012;2023-10-13T05:38:19;100055.13;;;9.61;100.00
19600;BME280;9947;57.722;12.012;2023-10-13T05:41:08;100059.53;;;9.62;100.00
19600;BME280;9947;57.722;12.012;2023-10-13T05:43:53;100054.53;;;9.57;100.00
19600;BME280;9947;57.722;12.012;2023-10-13T05:46:41;100061.03;;;9.54;100.00
19600;BME280;9947;57.722;12.012;2023-10-13T05:49:31;100065.59;;;9.54;100.00
19600;BME280;9947;57.722;12.012;2023-10-13T05:52:19;100061.75;;;9.56;100.00
19600;BME280;9947;57.722;12.012;2023-10-13T05:55:07;100065.59;;;9.54;100.00
19600;BME280;9947;57.722;12.012;2023-10-13T05:57:56;100055.25;;;9.59;100.00
19600;BME280;9947;57.722;12.012;2023-10-13T06:00:44;100051.69;;;9.58;100.00
19600;BME280;9947;57.722;12.012;2023-10-13T06:03:29;100042.63;;;9.59;100.00
19600;BME280;9947;57.722;12.012;2023-10-13T06:06:20;100032.81;;;9.58;100.00
19600;BME280;9947;57.722;12.012;2023-10-13T06:09:18;100037.34;;;9.58;100.00
19600;BME280;9947;57.722;12.012;2023-10-13T06:12:06;100032.56;;;9.62;100.00
19600;BME280;9947;57.722;12.012;2023-10-13T06:15:00;100030.59;;;9.64;100.00
19600;BME280;9947;57.722;12.012;2023-10-13T06:17:44;100027.66;;;9.67;100.00
19600;BME280;9947;57.722;12.012;2023-10-13T06:20:29;100020.34;;;9.78;100.00
19600;BME280;9947;57.722;12.012;2023-10-13T06:23:15;100018.50;;;9.79;100.00
19600;BME280;9947;57.722;12.012;2023-10-13T06:26:04;100020.34;;;9.78;100.00
19600;BME280;9947;57.722;12.012;2023-10-13T06:28:50;100022.06;;;9.79;100.00
19600;BME280;9947;57.722;12.012;2023-10-13T06:31:34;100017.25;;;9.83;100.00
19600;BME280;9947;57.722;12.012;2023-10-13T06:34:03;100016.00;;;9.87;100.00
19600;BME280;9947;57.722;12.012;2023-10-13T06:36:32;100013.16;;;9.88;100.00
19600;BME280;9947;57.722;12.012;2023-10-13T06:39:01;100021.75;;;9.94;100.00
19600;BME280;9947;57.722;12.012;2023-10-13T06:41:47;100019.66;;;9.97;100.00
19600;BME280;9947;57.722;12.012;2023-10-13T06:44:17;100013.00;;;10.01;100.00
19600;BME280;9947;57.722;12.012;2023-10-13T06:46:52;100007.00;;;9.98;100.00
19600;BME280;9947;57.722;12.012;2023-10-13T06:49:21;100007.78;;;10.09;100.00
19600;BME280;9947;57.722;12.012;2023-10-13T06:51:50;100003.31;;;10.19;100.00
19600;BME280;9947;57.722;12.012;2023-10-13T06:54:26;99997.13;;;10.29;100.00
19600;BME280;9947;57.722;12.012;2023-10-13T06:56:59;99993.88;;;10.35;100.00
19600;BME280;9947;57.722;12.012;2023-10-13T06:59:40;99997.44;;;10.35;100.00
19600;BME280;9947;57.722;12.012;2023-10-13T07:02:18;99985.00;;;10.44;100.00
19600;BME280;9947;57.722;12.012;2023-10-13T07:04:55;99987.56;;;10.45;100.00
19600;BME280;9947;57.722;12.012;2023-10-13T07:07:49;99991.28;;;10.54;100.00
19600;BME280;9947;57.722;12.012;2023-10-13T07:10:24;99984.47;;;10.60;100.00
19600;BME280;9947;57.722;12.012;2023-10-13T07:13:02;99988.75;;;10.62;100.00
19600;BME280;9947;57.722;12.012;2023-10-13T07:15:38;99986.03;;;10.62;100.00
19600;BME280;9947;57.722;12.012;2023-10-13T07:18:20;99977.28;;;10.70;100.00
19600;BME280;9947;57.722;12.012;2023-10-13T07:21:01;99962.44;;;10.64;100.00
19600;BME280;9947;57.722;12.012;2023-10-13T07:23:36;99969.88;;;10.72;100.00
19600;BME280;9947;57.722;12.012;2023-10-13T07:26:05;99968.75;;;10.74;100.00
19600;BME280;9947;57.722;12.012;2023-10-13T07:28:37;99962.63;;;10.72;100.00
19600;BME280;9947;57.722;12.012;2023-10-13T07:31:23;99955.94;;;10.76;100.00
19600;BME280;9947;57.722;12.012;2023-10-13T07:33:59;99951.84;;;10.82;100.00
19600;BME280;9947;57.722;12.012;2023-10-13T07:36:39;99949.69;;;10.76;100.00
19600;BME280;9947;57.722;12.012;2023-10-13T07:39:09;99942.44;;;10.76;100.00
19600;BME280;9947;57.722;12.012;2023-10-13T07:41:50;99933.03;;;10.80;100.00
19600;BME280;9947;57.722;12.012;2023-10-13T07:44:29;99925.50;;;10.84;100.00
19600;BME280;9947;57.722;12.012;2023-10-13T07:46:59;99918.53;;;10.91;100.00
19600;BME280;9947;57.722;12.012;2023-10-13T07:49:31;99910.31;;;11.02;100.00
19600;BME280;9947;57.722;12.012;2023-10-13T07:52:04;99910.34;;;11.22;100.00
19600;BME280;9947;57.722;12.012;2023-10-13T07:54:51;99904.34;;;11.28;100.00
19600;BME280;9947;57.722;12.012;2023-10-13T07:57:25;99900.38;;;11.32;100.00
19600;BME280;9947;57.722;12.012;2023-10-13T08:00:02;99894.09;;;11.41;100.00
19600;BME280;9947;57.722;12.012;2023-10-13T08:02:40;99889.81;;;11.38;100.00
19600;BME280;9947;57.722;12.012;2023-10-13T08:05:37;99880.16;;;11.46;100.00
19600;BME280;9947;57.722;12.012;2023-10-13T08:08:24;99879.84;;;11.49;100.00
19600;BME280;9947;57.722;12.012;2023-10-13T08:11:00;99877.97;;;11.59;100.00
19600;BME280;9947;57.722;12.012;2023-10-13T08:13:41;99868.59;;;11.43;100.00
19600;BME280;9947;57.722;12.012;2023-10-13T08:16:22;99863.06;;;11.45;100.00
19600;BME280;9947;57.722;12.012;2023-10-13T08:18:56;99855.34;;;11.40;100.00
19600;BME280;9947;57.722;12.012;2023-10-13T08:21:29;99850.22;;;11.37;100.00
19600;BME280;9947;57.722;12.012;2023-10-13T08:24:15;99846.66;;;11.37;100.00
19600;BME280;9947;57.722;12.012;2023-10-13T08:26:57;99830.28;;;11.48;100.00
19600;BME280;9947;57.722;12.012;2023-10-13T08:29:58;99831.66;;;11.62;100.00
19600;BME280;9947;57.722;12.012;2023-10-13T08:32:52;99823.44;;;11.54;100.00
19600;BME280;9947;57.722;12.012;2023-10-13T08:35:25;99806.91;;;11.57;100.00
19600;BME280;9947;57.722;12.012;2023-10-13T08:38:11;99800.63;;;11.56;100.00
19600;BME280;9947;57.722;12.012;2023-10-13T08:40:46;99796.03;;;11.66;100.00
19600;BME280;9947;57.722;12.012;2023-10-13T08:43:47;99792.00;;;11.90;100.00
19600;BME280;9947;57.722;12.012;2023-10-13T08:46:30;99787.56;;;11.89;100.00
19600;BME280;9947;57.722;12.012;2023-10-13T08:49:18;99773.94;;;11.71;100.00
19600;BME280;9947;57.722;12.012;2023-10-13T08:51:50;99776.34;;;11.74;100.00
19600;BME280;9947;57.722;12.012;2023-10-13T08:54:33;99755.28;;;11.68;100.00
19600;BME280;9947;57.722;12.012;2023-10-13T08:57:13;99755.25;;;11.78;100.00
19600;BME280;9947;57.722;12.012;2023-10-13T09:00:21;99748.94;;;12.14;100.00
19600;BME280;9947;57.722;12.012;2023-10-13T09:03:24;99742.75;;;12.22;100.00
19600;BME280;9947;57.722;12.012;2023-10-13T09:05:55;99750.06;;;11.94;100.00
19600;BME280;9947;57.722;12.012;2023-10-13T09:08:39;99741.69;;;11.87;100.00
19600;BME280;9947;57.722;12.012;2023-10-13T09:11:39;99736.97;;;11.89;100.00
19600;BME280;9947;57.722;12.012;2023-10-13T09:14:19;99732.38;;;11.99;100.00
19600;BME280;9947;57.722;12.012;2023-10-13T09:17:02;99716.22;;;12.08;100.00
19600;BME280;9947;57.722;12.012;2023-10-13T09:19:49;99719.97;;;11.97;100.00
19600;BME280;9947;57.722;12.012;2023-10-13T09:22:26;99724.25;;;11.99;100.00
19600;BME280;9947;57.722;12.012;2023-10-13T09:24:57;99709.56;;;12.20;100.00
19600;BME280;9947;57.722;12.012;2023-10-13T09:27:33;99698.41;;;12.05;100.00
19600;BME280;9947;57.722;12.012;2023-10-13T09:30:08;99678.38;;;12.16;100.00
19600;BME280;9947;57.722;12.012;2023-10-13T09:32:36;99671.63;;;12.02;100.00
19600;BME280;9947;57.722;12.012;2023-10-13T09:35:19;99667.44;;;12.08;100.00
19600;BME280;9947;57.722;12.012;2023-10-13T09:37:50;99666.22;;;12.20;100.00
19600;BME280;9947;57.722;12.012;2023-10-13T09:40:17;99653.47;;;11.85;100.00
19600;BME280;9947;57.722;12.012;2023-10-13T09:43:04;99641.09;;;11.82;100.00
19600;BME280;9947;57.722;12.012;2023-10-13T09:45:41;99638.47;;;11.63;100.00
19600;BME280;9947;57.722;12.012;2023-10-13T09:48:31;99629.56;;;11.80;100.00
19600;BME280;9947;57.722;12.012;2023-10-13T09:51:01;99622.84;;;11.84;100.00
19600;BME280;9947;57.722;12.012;2023-10-13T09:53:31;99622.88;;;11.74;100.00
19600;BME280;9947;57.722;12.012;2023-10-13T09:56:05;99618.13;;;11.59;100.00
19600;BME280;9947;57.722;12.012;2023-10-13T09:58:50;99608.44;;;11.84;100.00
19600;BME280;9947;57.722;12.012;2023-10-13T10:01:27;99603.25;;;11.72;100.00
19600;BME280;9947;57.722;12.012;2023-10-13T10:04:07;99596.94;;;11.54;100.00
19600;BME280;9947;57.722;12.012;2023-10-13T10:06:38;99591.28;;;11.48;100.00
19600;BME280;9947;57.722;12.012;2023-10-13T10:09:05;99587.16;;;11.43;100.00
19600;BME280;9947;57.722;12.012;2023-10-13T10:12:04;99578.75;;;11.47;100.00
19600;BME280;9947;57.722;12.012;2023-10-13T10:17:50;99566.22;;;11.46;100.00
19600;BME280;9947;57.722;12.012;2023-10-13T10:20:28;99550.41;;;11.23;100.00
19600;BME280;9947;57.722;12.012;2023-10-13T10:23:12;99538.34;;;11.35;100.00
19600;BME280;9947;57.722;12.012;2023-10-13T10:25:54;99531.88;;;11.19;100.00
19600;BME280;9947;57.722;12.012;2023-10-13T10:28:36;99524.78;;;10.90;100.00
19600;BME280;9947;57.722;12.012;2023-10-13T10:31:08;99508.00;;;10.87;100.00
19600;BME280;9947;57.722;12.012;2023-10-13T10:33:39;99509.31;;;10.82;100.00
19600;BME280;9947;57.722;12.012;2023-10-13T10:36:07;99492.59;;;10.97;100.00
19600;BME280;9947;57.722;12.012;2023-10-13T10:38:52;99482.19;;;11.02;100.00
19600;BME280;9947;57.722;12.012;2023-10-13T10:41:27;99466.34;;;11.07;100.00
19600;BME280;9947;57.722;12.012;2023-10-13T10:44:13;99463.00;;;10.95;100.00
19600;BME280;9947;57.722;12.012;2023-10-13T10:46:48;99451.13;;;10.51;100.00
19600;BME280;9947;57.722;12.012;2023-10-13T10:49:27;99448.56;;;10.49;100.00
19600;BME280;9947;57.722;12.012;2023-10-13T10:51:58;99449.75;;;10.37;100.00
19600;BME280;9947;57.722;12.012;2023-10-13T10:54:31;99435.88;;;10.23;100.00
19600;BME280;9947;57.722;12.012;2023-10-13T10:56:58;99444.09;;;10.11;100.00
19600;BME280;9947;57.722;12.012;2023-10-13T10:59:38;99448.34;;;10.14;100.00
19600;BME280;9947;57.722;12.012;2023-10-13T11:02:10;99430.50;;;10.03;100.00
19600;BME280;9947;57.722;12.012;2023-10-13T11:04:50;99430.19;;;10.06;100.00
19600;BME280;9947;57.722;12.012;2023-10-13T11:07:25;99428.78;;;10.02;100.00
19600;BME280;9947;57.722;12.012;2023-10-13T11:09:56;99424.69;;;9.98;100.00
19600;BME280;9947;57.722;12.012;2023-10-13T11:12:37;99398.66;;;10.07;100.00
19600;BME280;9947;57.722;12.012;2023-10-13T11:15:08;99398.94;;;10.04;100.00
19600;BME280;9947;57.722;12.012;2023-10-13T11:18:01;99378.47;;;10.21;100.00
19600;BME280;9947;57.722;12.012;2023-10-13T11:20:42;99361.59;;;10.36;100.00
19600;BME280;9947;57.722;12.012;2023-10-13T11:23:22;99360.81;;;10.16;100.00
19600;BME280;9947;57.722;12.012;2023-10-13T11:26:04;99352.16;;;10.23;100.00
19600;BME280;9947;57.722;12.012;2023-10-13T11:28:52;99328.03;;;10.39;100.00
19600;BME280;9947;57.722;12.012;2023-10-13T11:31:23;99349.50;;;10.03;100.00
19600;BME280;9947;57.722;12.012;2023-10-13T11:33:53;99341.31;;;9.85;100.00
19600;BME280;9947;57.722;12.012;2023-10-13T11:36:25;99353.25;;;9.93;100.00
19600;BME280;9947;57.722;12.012;2023-10-13T11:38:58;99344.59;;;9.89;100.00
19600;BME280;9947;57.722;12.012;2023-10-13T11:41:26;99358.94;;;9.80;100.00
19600;BME280;9947;57.722;12.012;2023-10-13T11:43:59;99354.69;;;9.77;100.00
19600;BME280;9947;57.722;12.012;2023-10-13T11:46:38;99351.44;;;9.74;100.00
19600;BME280;9947;57.722;12.012;2023-10-13T11:49:33;99350.59;;;9.73;100.00
19600;BME280;9947;57.722;12.012;2023-10-13T11:52:05;99360.69;;;9.71;100.00
19600;BME280;9947;57.722;12.012;2023-10-13T11:54:45;99355.03;;;9.55;100.00
19600;BME280;9947;57.722;12.012;2023-10-13T11:57:15;99346.03;;;9.74;100.00
19600;BME280;9947;57.722;12.012;2023-10-13T11:59:46;99355.84;;;9.75;100.00
19600;BME280;9947;57.722;12.012;2023-10-13T12:02:21;99364.97;;;9.54;100.00
19600;BME280;9947;57.722;12.012;2023-10-13T12:05:06;99363.25;;;9.53;100.00
19600;BME280;9947;57.722;12.012;2023-10-13T12:07:40;99364.41;;;9.51;100.00
19600;BME280;9947;57.722;12.012;2023-10-13T12:10:18;99367.09;;;9.51;100.00
19600;BME280;9947;57.722;12.012;2023-10-13T12:13:00;99370.38;;;9.45;100.00
19600;BME280;9947;57.722;12.012;2023-10-13T12:15:32;99366.53;;;9.47;100.00
19600;BME280;9947;57.722;12.012;2023-10-13T12:18:15;99360.59;;;9.44;100.00
19600;BME280;9947;57.722;12.012;2023-10-13T12:20:42;99370.94;;;9.48;100.00
19600;BME280;9947;57.722;12.012;2023-10-13T12:23:16;99361.56;;;9.52;100.00
19600;BME280;9947;57.722;12.012;2023-10-13T12:25:46;99370.94;;;9.48;100.00
19600;BME280;9947;57.722;12.012;2023-10-13T12:28:44;99364.84;;;9.46;100.00
19600;BME280;9947;57.722;12.012;2023-10-13T12:31:19;99353.78;;;9.40;100.00
19600;BME280;9947;57.722;12.012;2023-10-13T12:33:53;99359.19;;;9.40;100.00
19600;BME280;9947;57.722;12.012;2023-10-13T12:36:24;99345.84;;;9.38;100.00
19600;BME280;9947;57.722;12.012;2023-10-13T12:38:59;99348.94;;;9.43;100.00
19600;BME280;9947;57.722;12.012;2023-10-13T12:41:44;99339.72;;;9.36;100.00
19600;BME280;9947;57.722;12.012;2023-10-13T12:44:30;99333.06;;;9.40;100.00
19600;BME280;9947;57.722;12.012;2023-10-13T12:47:15;99324.53;;;9.45;100.00
19600;BME280;9947;57.722;12.012;2023-10-13T12:50:02;99312.03;;;9.34;100.00
19600;BME280;9947;57.722;12.012;2023-10-13T12:52:40;99302.69;;;9.38;100.00
19600;BME280;9947;57.722;12.012;2023-10-13T12:55:14;99298.84;;;9.41;100.00
19600;BME280;9947;57.722;12.012;2023-10-13T12:57:46;99308.19;;;9.37;100.00
19600;BME280;9947;57.722;12.012;2023-10-13T13:00:15;99301.09;;;9.36;100.00
19600;BME280;9947;57.722;12.012;2023-10-13T13:02:59;99271.03;;;9.31;100.00
19600;BME280;9947;57.722;12.012;2023-10-13T13:05:40;99269.59;;;9.36;100.00
19600;BME280;9947;57.722;12.012;2023-10-13T13:08:17;99256.84;;;9.38;100.00
19600;BME280;9947;57.722;12.012;2023-10-13T13:10:49;99248.84;;;9.37;100.00
19600;BME280;9947;57.722;12.012;2023-10-13T13:13:17;99226.72;;;9.33;100.00
19600;BME280;9947;57.722;12.012;2023-10-13T13:15:49;99226.28;;;9.47;100.00
19600;BME280;9947;57.722;12.012;2023-10-13T13:18:22;99213.50;;;9.49;100.00
19600;BME280;9947;57.722;12.012;2023-10-13T13:20:49;99201.78;;;9.58;100.00
19600;BME280;9947;57.722;12.012;2023-10-13T13:23:21;99190.16;;;9.58;100.00
19600;BME280;9947;57.722;12.012;2023-10-13T13:25:52;99179.56;;;9.74;100.00
19600;BME280;9947;57.722;12.012;2023-10-13T13:28:23;99162.47;;;9.83;100.00
19600;BME280;9947;57.722;12.012;2023-10-13T13:30:54;99143.88;;;9.80;100.00
19600;BME280;9947;57.722;12.012;2023-10-13T13:33:25;99123.31;;;9.79;100.00
19600;BME280;9947;57.722;12.012;2023-10-13T13:35:59;99106.66;;;9.84;100.00
19600;BME280;9947;57.722;12.012;2023-10-13T13:38:27;99093.47;;;9.81;100.00
19600;BME280;9947;57.722;12.012;2023-10-13T13:41:01;99079.28;;;9.79;100.00
19600;BME280;9947;57.722;12.012;2023-10-13T13:43:34;99073.41;;;9.83;100.00
19600;BME280;9947;57.722;12.012;2023-10-13T13:46:16;99063.31;;;9.85;100.00
19600;BME280;9947;57.722;12.012;2023-10-13T13:48:44;99040.56;;;9.88;100.00
19600;BME280;9947;57.722;12.012;2023-10-13T13:51:13;99044.41;;;9.85;100.00
19600;BME280;9947;57.722;12.012;2023-10-13T13:53:40;99041.88;;;9.84;100.00
19600;BME280;9947;57.722;12.012;2023-10-13T13:56:13;99020.13;;;9.85;100.00
19600;BME280;9947;57.722;12.012;2023-10-13T13:58:43;99014.03;;;9.83;100.00
19600;BME280;9947;57.722;12.012;2023-10-13T14:01:12;99011.34;;;9.83;100.00
19600;BME280;9947;57.722;12.012;2023-10-13T14:03:41;98999.22;;;9.87;100.00
19600;BME280;9947;57.722;12.012;2023-10-13T14:06:11;99005.63;;;9.86;100.00
19600;BME280;9947;57.722;12.012;2023-10-13T14:08:44;98992.81;;;9.88;100.00
19600;BME280;9947;57.722;12.012;2023-10-13T14:11:18;98977.03;;;9.94;100.00
19600;BME280;9947;57.722;12.012;2023-10-13T14:14:01;98968.78;;;9.95;100.00
19600;BME280;9947;57.722;12.012;2023-10-13T14:16:30;98957.81;;;9.97;100.00
19600;BME280;9947;57.722;12.012;2023-10-13T14:19:03;98969.78;;;9.94;100.00
19600;BME280;9947;57.722;12.012;2023-10-13T14:21:32;98953.59;;;9.94;100.00
19600;BME280;9947;57.722;12.012;2023-10-13T14:24:01;98938.28;;;10.03;100.00
19600;BME280;9947;57.722;12.012;2023-10-13T14:26:30;98931.69;;;9.97;100.00
19600;BME280;9947;57.722;12.012;2023-10-13T14:28:59;98926.31;;;10.05;100.00
19600;BME280;9947;57.722;12.012;2023-10-13T14:31:28;98911.97;;;10.05;100.00
19600;BME280;9947;57.722;12.012;2023-10-13T14:33:55;98895.63;;;10.06;100.00
19600;BME280;9947;57.722;12.012;2023-10-13T14:36:24;98900.00;;;10.07;100.00
19600;BME280;9947;57.722;12.012;2023-10-13T14:38:54;98896.84;;;10.12;100.00
19600;BME280;9947;57.722;12.012;2023-10-13T14:41:22;98893.69;;;10.16;100.00
19600;BME280;9947;57.722;12.012;2023-10-13T14:43:59;98881.25;;;10.24;100.00
19600;BME280;9947;57.722;12.012;2023-10-13T14:46:32;98870.81;;;10.29;100.00
19600;BME280;9947;57.722;12.012;2023-10-13T14:49:01;98880.97;;;10.35;100.00
19600;BME280;9947;57.722;12.012;2023-10-13T14:51:34;98872.69;;;10.36;100.00
19600;BME280;9947;57.722;12.012;2023-10-13T14:54:06;98872.06;;;10.42;100.00
19600;BME280;9947;57.722;12.012;2023-10-13T14:56:36;98852.84;;;10.45;100.00
19600;BME280;9947;57.722;12.012;2023-10-13T14:59:05;98850.66;;;10.49;100.00
19600;BME280;9947;57.722;12.012;2023-10-13T15:01:32;98862.66;;;10.55;100.00
19600;BME280;9947;57.722;12.012;2023-10-13T15:04:02;98847.47;;;10.62;100.00
19600;BME280;9947;57.722;12.012;2023-10-13T15:06:32;98855.13;;;10.74;100.00
19600;BME280;9947;57.722;12.012;2023-10-13T15:09:02;98845.34;;;10.81;100.00
19600;BME280;9947;57.722;12.012;2023-10-13T15:11:40;98840.66;;;11.00;100.00
19600;BME280;9947;57.722;12.012;2023-10-13T15:14:13;98843.72;;;11.05;100.00
19600;BME280;9947;57.722;12.012;2023-10-13T15:16:46;98861.47;;;11.16;100.00
19600;BME280;9947;57.722;12.012;2023-10-13T15:19:18;98839.34;;;11.53;100.00
19600;BME280;9947;57.722;12.012;2023-10-13T15:21:46;98843.72;;;11.70;100.00
19600;BME280;9947;57.722;12.012;2023-10-13T15:24:16;98857.41;;;12.09;100.00
19600;BME280;9947;57.722;12.012;2023-10-13T15:26:47;98861.56;;;12.36;100.00
19600;BME280;9947;57.722;12.012;2023-10-13T15:29:20;98881.06;;;12.71;100.00
19600;BME280;9947;57.722;12.012;2023-10-13T15:31:56;98889.31;;;12.85;100.00
19600;BME280;9947;57.722;12.012;2023-10-13T15:34:52;98892.16;;;13.23;100.00
19600;BME280;9947;57.722;12.012;2023-10-13T15:37:20;98881.28;;;13.31;100.00
19600;BME280;9947;57.722;12.012;2023-10-13T15:39:53;98891.78;;;13.34;100.00
19600;BME280;9947;57.722;12.012;2023-10-13T15:42:21;98887.59;;;13.46;100.00
19600;BME280;9947;57.722;12.012;2023-10-13T15:44:50;98898.94;;;13.50;100.00
19600;BME280;9947;57.722;12.012;2023-10-13T15:47:17;98885.88;;;13.53;100.00
19600;BME280;9947;57.722;12.012;2023-10-13T15:49:51;98882.13;;;13.54;100.00
19600;BME280;9947;57.722;12.012;2023-10-13T15:52:22;98892.44;;;13.59;100.00
19600;BME280;9947;57.722;12.012;2023-10-13T15:54:50;98882.41;;;13.60;100.00
19600;BME280;9947;57.722;12.012;2023-10-13T15:57:22;98863.59;;;13.58;100.00
19600;BME280;9947;57.722;12.012;2023-10-13T15:59:51;98896.19;;;13.58;100.00
19600;BME280;9947;57.722;12.012;2023-10-13T16:02:19;98874.56;;;13.65;100.00
19600;BME280;9947;57.722;12.012;2023-10-13T16:04:51;98862.88;;;13.64;100.00
19600;BME280;9947;57.722;12.012;2023-10-13T16:07:24;98850.31;;;13.63;100.00
19600;BME280;9947;57.722;12.012;2023-10-13T16:09:55;98878.13;;;13.65;100.00
19600;BME280;9947;57.722;12.012;2023-10-13T16:12:37;98847.41;;;13.65;100.00
19600;BME280;9947;57.722;12.012;2023-10-13T16:15:12;98854.34;;;13.67;100.00
19600;BME280;9947;57.722;12.012;2023-10-13T16:17:40;98842.81;;;13.65;100.00
19600;BME280;9947;57.722;12.012;2023-10-13T16:20:10;98827.56;;;13.64;100.00
19600;BME280;9947;57.722;12.012;2023-10-13T16:22:45;98829.25;;;13.65;100.00
19600;BME280;9947;57.722;12.012;2023-10-13T16:25:14;98846.19;;;13.67;100.00
19600;BME280;9947;57.722;12.012;2023-10-13T16:27:43;98824.84;;;13.64;100.00
19600;BME280;9947;57.722;12.012;2023-10-13T16:30:13;98830.94;;;13.66;100.00
19600;BME280;9947;57.722;12.012;2023-10-13T16:32:44;98826.16;;;13.68;100.00
19600;BME280;9947;57.722;12.012;2023-10-13T16:35:13;98825.31;;;13.68;100.00
19600;BME280;9947;57.722;12.012;2023-10-13T16:37:45;98836.66;;;13.71;100.00
19600;BME280;9947;57.722;12.012;2023-10-13T16:40:16;98842.09;;;13.71;100.00
19600;BME280;9947;57.722;12.012;2023-10-13T16:42:44;98858.09;;;13.66;100.00
19600;BME280;9947;57.722;12.012;2023-10-13T16:45:18;98867.44;;;13.64;100.00
19600;BME280;9947;57.722;12.012;2023-10-13T16:47:51;98866.97;;;13.60;100.00
19600;BME280;9947;57.722;12.012;2023-10-13T16:50:19;98874.28;;;13.60;100.00